createdAt,value
2018-12-14T00:02:20.640Z,8.27
2018-12-14T00:04:49.533Z,9.13
2018-12-14T00:07:18.445Z,9.07
2018-12-14T00:09:47.666Z,9.43
2018-12-14T00:12:16.689Z,8.83
2018-12-14T00:14:45.596Z,9.03
2018-12-14T00:17:15.152Z,8.33
2018-12-14T00:19:44.001Z,9.37
2018-12-14T00:22:13.476Z,9.83
2018-12-14T00:24:42.417Z,7.90
2018-12-14T00:27:11.651Z,7.90
2018-12-14T00:29:40.862Z,8.20
2018-12-14T00:32:10.508Z,7.93
2018-12-14T00:34:39.512Z,8.03
2018-12-14T00:37:08.398Z,7.20
2018-12-14T00:39:37.987Z,7.87
2018-12-14T00:42:07.431Z,7.83
2018-12-14T00:44:36.299Z,8.30
2018-12-14T00:47:05.419Z,7.77
2018-12-14T00:49:34.374Z,7.57
2018-12-14T00:52:03.359Z,7.43
2018-12-14T00:54:32.365Z,7.10
2018-12-14T00:57:01.248Z,7.70
2018-12-14T00:59:30.260Z,7.70
2018-12-14T01:01:59.338Z,7.00
2018-12-14T01:04:28.241Z,6.27
2018-12-14T01:06:57.151Z,6.50
2018-12-14T01:09:26.757Z,6.30
2018-12-14T01:11:58.313Z,6.57
2018-12-14T01:14:26.891Z,6.67
2018-12-14T01:16:55.823Z,6.27
2018-12-14T01:19:24.743Z,5.47
2018-12-14T01:21:53.759Z,6.10
2018-12-14T01:24:22.811Z,6.00
2018-12-14T01:26:51.740Z,6.70
2018-12-14T01:29:20.700Z,6.20
2018-12-14T01:31:49.555Z,6.43
2018-12-14T01:34:18.531Z,5.97
2018-12-14T01:36:47.889Z,6.47
2018-12-14T01:39:17.062Z,5.63
2018-12-14T01:41:45.926Z,6.33
2018-12-14T01:44:15.265Z,6.30
2018-12-14T01:46:44.854Z,6.87
2018-12-14T01:49:13.830Z,6.57
2018-12-14T01:51:42.854Z,6.67
2018-12-14T01:54:12.267Z,6.50
2018-12-14T01:56:41.559Z,6.13
2018-12-14T01:59:10.602Z,6.77
2018-12-14T02:01:39.898Z,7.10
2018-12-14T02:04:08.830Z,6.37
2018-12-14T02:06:37.893Z,6.80
2018-12-14T02:09:07.515Z,6.43
2018-12-14T02:11:36.386Z,6.60
2018-12-14T02:14:05.525Z,6.00
2018-12-14T02:16:34.377Z,6.63
2018-12-14T02:19:03.288Z,6.73
2018-12-14T02:21:32.318Z,7.00
2018-12-14T02:24:01.283Z,6.93
2018-12-14T02:26:30.345Z,6.83
2018-12-14T02:28:59.316Z,6.17
2018-12-14T02:31:28.396Z,7.72
2018-12-14T02:33:57.293Z,6.17
2018-12-14T02:36:26.753Z,6.67
2018-12-14T02:38:56.007Z,6.47
2018-12-14T02:41:25.037Z,6.10
2018-12-14T02:43:53.922Z,6.20
2018-12-14T02:46:22.792Z,6.27
2018-12-14T02:48:51.761Z,6.77
2018-12-14T02:51:20.770Z,5.10
2018-12-14T02:53:49.658Z,5.87
2018-12-14T02:56:18.662Z,6.10
2018-12-14T02:58:47.603Z,6.47
2018-12-14T03:01:16.584Z,6.07
2018-12-14T03:03:45.562Z,6.60
2018-12-14T03:06:14.783Z,6.30
2018-12-14T03:08:43.650Z,6.90
2018-12-14T03:11:12.560Z,6.73
2018-12-14T03:13:41.473Z,7.30
2018-12-14T03:16:10.555Z,6.67
2018-12-14T03:18:40.129Z,7.00
2018-12-14T03:21:09.016Z,6.90
2018-12-14T03:23:37.946Z,7.10
2018-12-14T03:26:07.005Z,8.00
2018-12-14T03:28:36.744Z,7.20
2018-12-14T03:31:05.668Z,7.63
2018-12-14T03:33:36.596Z,7.80
2018-12-14T03:36:05.962Z,7.27
2018-12-14T03:38:35.129Z,7.10
2018-12-14T03:41:04.121Z,7.13
2018-12-14T03:43:33.018Z,9.17
2018-12-14T03:46:08.519Z,7.20
2018-12-14T03:48:43.264Z,7.03
2018-12-14T03:51:20.295Z,6.63
2018-12-14T03:53:55.339Z,6.67
2018-12-14T03:56:24.281Z,6.67
2018-12-14T03:58:53.268Z,7.30
2018-12-14T04:01:22.244Z,7.33
2018-12-14T04:03:51.210Z,7.30
2018-12-14T04:06:20.107Z,6.70
2018-12-14T04:08:49.039Z,6.90
2018-12-14T04:11:17.992Z,7.30
2018-12-14T04:13:47.098Z,6.93
2018-12-14T04:16:16.125Z,6.43
2018-12-14T04:18:45.094Z,7.23
2018-12-14T04:21:14.207Z,6.97
2018-12-14T04:23:43.250Z,7.00
2018-12-14T04:26:12.772Z,6.57
2018-12-14T04:28:42.963Z,6.40
2018-12-14T04:31:12.115Z,6.70
2018-12-14T04:33:41.136Z,7.20
2018-12-14T04:36:10.313Z,6.63
2018-12-14T04:38:39.234Z,6.97
2018-12-14T04:41:08.258Z,7.07
2018-12-14T04:43:37.223Z,6.70
2018-12-14T04:46:06.240Z,6.57
2018-12-14T04:48:35.214Z,7.00
2018-12-14T04:51:04.177Z,5.83
2018-12-14T04:53:33.159Z,6.37
2018-12-14T04:56:02.457Z,7.33
2018-12-14T04:58:31.583Z,6.37
2018-12-14T05:01:00.525Z,7.20
2018-12-14T05:03:29.500Z,6.83
2018-12-14T05:05:58.356Z,6.47
2018-12-14T05:08:27.944Z,7.30
2018-12-14T05:10:56.857Z,7.60
2018-12-14T05:13:25.740Z,7.73
2018-12-14T05:15:54.676Z,7.87
2018-12-14T05:18:23.698Z,7.17
2018-12-14T05:20:52.992Z,7.33
2018-12-14T05:23:22.810Z,7.33
2018-12-14T05:25:51.838Z,6.87
2018-12-14T05:28:21.307Z,6.80
2018-12-14T05:30:50.279Z,7.47
2018-12-14T05:33:19.325Z,6.63
2018-12-14T05:35:48.362Z,7.20
2018-12-14T05:38:17.264Z,7.10
2018-12-14T05:40:46.275Z,7.23
2018-12-14T05:43:15.170Z,6.87
2018-12-14T05:45:44.103Z,7.10
2018-12-14T05:48:13.132Z,6.97
2018-12-14T05:50:42.044Z,7.07
2018-12-14T05:53:11.077Z,7.87
2018-12-14T05:55:40.655Z,7.43
2018-12-14T05:58:09.781Z,7.53
2018-12-14T06:00:38.636Z,6.93
2018-12-14T06:03:07.623Z,7.13
2018-12-14T06:05:36.552Z,7.20
2018-12-14T06:08:05.581Z,7.33
2018-12-14T06:10:34.717Z,6.73
2018-12-14T06:13:09.074Z,7.23
2018-12-14T06:15:34.947Z,7.63
2018-12-14T06:18:03.905Z,7.60
2018-12-14T06:20:32.774Z,8.40
2018-12-14T06:23:01.647Z,7.77
2018-12-14T06:25:30.656Z,8.13
2018-12-14T06:28:00.628Z,8.63
2018-12-14T06:30:29.735Z,8.03
2018-12-14T06:32:58.607Z,7.87
2018-12-14T06:35:27.515Z,7.50
2018-12-14T06:37:56.447Z,7.43
2018-12-14T06:40:25.285Z,8.20
2018-12-14T06:42:54.174Z,7.97
2018-12-14T06:45:23.337Z,8.77
2018-12-14T06:47:52.162Z,8.73
2018-12-14T06:50:21.050Z,8.10
2018-12-14T06:52:50.608Z,8.07
2018-12-14T06:55:19.594Z,8.37
2018-12-14T06:57:48.501Z,8.40
2018-12-14T07:00:17.517Z,9.67
2018-12-14T07:02:46.434Z,9.07
2018-12-14T07:05:15.409Z,8.50
2018-12-14T07:07:44.592Z,8.00
2018-12-14T07:10:13.485Z,8.50
2018-12-14T07:12:42.344Z,8.17
2018-12-14T07:15:11.622Z,8.47
2018-12-14T07:17:40.485Z,8.43
2018-12-14T07:20:09.750Z,8.73
2018-12-14T07:22:38.707Z,8.43
2018-12-14T07:25:07.783Z,8.93
2018-12-14T07:27:36.613Z,8.93
2018-12-14T07:30:06.623Z,9.17
2018-12-14T07:32:37.996Z,9.00
2018-12-14T07:35:06.992Z,9.87
2018-12-14T07:37:36.063Z,7.77
2018-12-14T07:40:06.354Z,8.77
2018-12-14T07:42:35.952Z,9.13
2018-12-14T07:45:06.145Z,8.60
2018-12-14T07:47:35.039Z,8.97
2018-12-14T07:50:04.593Z,9.67
2018-12-14T07:52:33.446Z,8.97
2018-12-14T07:55:02.351Z,9.53
2018-12-14T07:57:31.368Z,9.60
2018-12-14T08:00:00.223Z,10.17
2018-12-14T08:02:29.192Z,9.10
2018-12-14T08:04:58.112Z,9.77
2018-12-14T08:07:27.262Z,10.17
2018-12-14T08:09:56.224Z,10.00
2018-12-14T08:12:25.212Z,10.50
2018-12-14T08:14:54.091Z,9.47
2018-12-14T08:17:22.939Z,10.80
2018-12-14T08:19:51.959Z,10.30
2018-12-14T08:22:20.899Z,10.90
2018-12-14T08:24:49.788Z,10.63
2018-12-14T08:27:18.705Z,9.67
2018-12-14T08:29:47.642Z,8.63
2018-12-14T08:32:16.966Z,8.93
2018-12-14T08:34:50.891Z,9.37
2018-12-14T08:37:17.035Z,9.13
2018-12-14T08:39:45.959Z,9.43
2018-12-14T08:42:14.861Z,8.80
2018-12-14T08:44:43.727Z,9.23
2018-12-14T08:47:12.781Z,8.67
2018-12-14T08:49:41.676Z,9.57
2018-12-14T08:52:10.624Z,10.27
2018-12-14T08:54:39.757Z,9.83
2018-12-14T08:57:08.646Z,9.67
2018-12-14T08:59:37.551Z,10.43
2018-12-14T09:02:06.696Z,9.83
2018-12-14T09:04:35.570Z,9.87
2018-12-14T09:07:04.418Z,8.83
2018-12-14T09:09:33.348Z,9.80
2018-12-14T09:12:02.756Z,9.63
2018-12-14T09:14:32.019Z,9.53
2018-12-14T09:17:00.936Z,9.13
2018-12-14T09:19:29.809Z,10.30
2018-12-14T09:21:58.661Z,9.00
2018-12-14T09:24:27.633Z,9.17
2018-12-14T09:26:56.537Z,8.63
2018-12-14T09:29:25.908Z,9.23
2018-12-14T09:31:54.934Z,8.90
2018-12-14T09:34:23.786Z,9.37
2018-12-14T09:36:52.751Z,9.37
2018-12-14T09:39:21.710Z,9.67
2018-12-14T09:41:50.717Z,9.43
2018-12-14T09:44:19.618Z,10.13
2018-12-14T09:46:48.643Z,10.17
2018-12-14T09:49:17.613Z,9.73
2018-12-14T09:51:46.734Z,9.53
2018-12-14T09:54:15.790Z,8.80
2018-12-14T09:56:44.763Z,10.40
2018-12-14T09:59:13.623Z,9.97
2018-12-14T10:01:42.620Z,9.37
2018-12-14T10:04:11.442Z,9.40
2018-12-14T10:06:40.848Z,10.00
2018-12-14T10:09:09.846Z,9.63
2018-12-14T10:11:38.813Z,9.20
2018-12-14T10:14:08.739Z,8.53
2018-12-14T10:16:37.703Z,10.30
2018-12-14T10:19:06.957Z,9.63
2018-12-14T10:21:36.206Z,9.70
2018-12-14T10:24:05.087Z,9.60
2018-12-14T10:26:34.053Z,9.27
2018-12-14T10:29:03.042Z,8.33
2018-12-14T10:31:32.056Z,9.30
2018-12-14T10:34:01.229Z,8.93
2018-12-14T10:36:30.454Z,9.60
2018-12-14T10:38:59.446Z,9.10
2018-12-14T10:41:28.400Z,8.67
2018-12-14T10:43:57.405Z,8.23
2018-12-14T10:46:26.304Z,7.93
2018-12-14T10:48:55.159Z,8.93
2018-12-14T10:51:24.422Z,8.47
2018-12-14T10:53:53.398Z,9.47
2018-12-14T10:56:22.246Z,7.80
2018-12-14T10:58:51.141Z,8.97
2018-12-14T11:01:25.562Z,8.67
2018-12-14T11:03:54.574Z,7.90
2018-12-14T11:06:23.469Z,8.37
2018-12-14T11:08:53.326Z,8.20
2018-12-14T11:11:22.231Z,8.67
2018-12-14T11:13:51.128Z,8.53
2018-12-14T11:16:20.263Z,8.87
2018-12-14T11:18:49.241Z,8.63
2018-12-14T11:21:18.083Z,8.73
2018-12-14T11:23:46.968Z,8.57
2018-12-14T11:26:15.900Z,9.37
2018-12-14T11:28:44.880Z,8.30
2018-12-14T11:31:14.547Z,9.53
2018-12-14T11:33:43.580Z,9.10
2018-12-14T11:36:13.036Z,9.50
2018-12-14T11:38:41.929Z,8.73
2018-12-14T11:41:10.903Z,8.27
2018-12-14T11:43:39.957Z,9.60
2018-12-14T11:46:08.919Z,8.53
2018-12-14T11:48:37.975Z,9.53
2018-12-14T11:51:09.037Z,9.53
2018-12-14T11:53:39.915Z,9.93
2018-12-14T11:56:09.153Z,9.90
2018-12-14T11:58:38.072Z,9.33
2018-12-14T12:01:07.047Z,9.73
2018-12-14T12:03:36.032Z,9.70
2018-12-14T12:06:05.025Z,9.40
2018-12-14T12:08:33.959Z,10.33
2018-12-14T12:11:03.306Z,10.70
2018-12-14T12:13:32.198Z,9.63
2018-12-14T12:16:01.159Z,9.60
2018-12-14T12:18:30.109Z,9.47
2018-12-14T12:20:58.995Z,9.97
2018-12-14T12:23:28.175Z,10.73
2018-12-14T12:25:57.137Z,10.57
2018-12-14T12:28:26.003Z,10.00
2018-12-14T12:30:55.039Z,9.53
2018-12-14T12:33:24.045Z,10.30
2018-12-14T12:35:53.035Z,10.73
2018-12-14T12:38:21.953Z,10.27
2018-12-14T12:40:50.952Z,10.07
2018-12-14T12:43:19.847Z,8.80
2018-12-14T12:45:48.777Z,9.33
2018-12-14T12:48:17.835Z,8.70
2018-12-14T12:50:46.728Z,9.13
2018-12-14T12:53:18.490Z,9.10
2018-12-14T12:55:47.813Z,9.90
2018-12-14T12:58:17.109Z,9.77
2018-12-14T13:00:46.077Z,10.10
2018-12-14T13:03:14.954Z,10.83
2018-12-14T13:05:43.854Z,11.33
2018-12-14T13:08:13.070Z,10.30
2018-12-14T13:10:41.931Z,11.20
2018-12-14T13:13:10.798Z,10.77
2018-12-14T13:15:39.722Z,10.60
2018-12-14T13:18:08.861Z,11.23
2018-12-14T13:20:38.013Z,12.07
2018-12-14T13:23:06.966Z,12.03
2018-12-14T13:25:35.846Z,11.60
2018-12-14T13:28:05.380Z,11.87
2018-12-14T13:30:35.043Z,11.97
2018-12-14T13:33:04.348Z,12.80
2018-12-14T13:35:33.238Z,11.93
2018-12-14T13:38:02.717Z,12.47
2018-12-14T13:40:31.668Z,12.23
2018-12-14T13:43:00.654Z,12.70
2018-12-14T13:45:30.001Z,12.60
2018-12-14T13:47:59.343Z,12.17
2018-12-14T13:50:28.271Z,13.53
2018-12-14T13:52:57.169Z,12.40
2018-12-14T13:55:26.195Z,13.13
2018-12-14T13:57:55.240Z,12.80
2018-12-14T14:00:24.267Z,12.00
2018-12-14T14:02:53.160Z,11.90
2018-12-14T14:05:22.123Z,12.53
2018-12-14T14:07:51.037Z,12.83
2018-12-14T14:10:19.987Z,13.13
2018-12-14T14:12:48.865Z,11.10
2018-12-14T14:15:20.869Z,12.33
2018-12-14T14:17:48.694Z,13.17
2018-12-14T14:20:18.121Z,12.03
2018-12-14T14:22:47.353Z,11.47
2018-12-14T14:25:17.595Z,11.80
2018-12-14T14:27:46.750Z,12.57
2018-12-14T14:30:15.654Z,12.47
2018-12-14T14:32:45.147Z,12.80
2018-12-14T14:35:14.132Z,13.37
2018-12-14T14:37:42.979Z,12.93
2018-12-14T14:40:12.095Z,13.03
2018-12-14T14:42:41.078Z,12.57
2018-12-14T14:45:09.999Z,13.17
2018-12-14T14:47:39.348Z,11.87
2018-12-14T14:50:10.247Z,13.90
2018-12-14T14:52:39.250Z,11.47
2018-12-14T14:55:08.295Z,12.20
2018-12-14T14:57:38.276Z,11.53
2018-12-14T15:00:08.546Z,12.37
2018-12-14T15:02:37.716Z,12.07
2018-12-14T15:05:07.206Z,11.30
2018-12-14T15:07:36.424Z,11.23
2018-12-14T15:10:07.016Z,11.00
2018-12-14T15:12:35.993Z,11.63
2018-12-14T15:15:06.767Z,11.70
2018-12-14T15:17:36.102Z,11.20
2018-12-14T15:20:05.436Z,10.07
2018-12-14T15:22:34.342Z,12.13
2018-12-14T15:25:03.350Z,12.60
2018-12-14T15:27:32.276Z,11.37
2018-12-14T15:30:01.287Z,11.70
2018-12-14T15:32:30.235Z,11.93
2018-12-14T15:34:59.346Z,15.87
2018-12-14T15:37:28.458Z,12.53
2018-12-14T15:39:57.501Z,11.80
2018-12-14T15:42:26.365Z,14.77
2018-12-14T15:44:55.313Z,14.80
2018-12-14T15:47:24.361Z,12.13
2018-12-14T15:49:53.424Z,12.67
2018-12-14T15:52:22.423Z,12.17
2018-12-14T15:54:51.365Z,13.70
2018-12-14T15:57:20.695Z,12.60
2018-12-14T15:59:49.587Z,11.87
2018-12-14T16:02:18.588Z,12.50
2018-12-14T16:04:47.603Z,13.63
2018-12-14T16:07:16.577Z,13.50
2018-12-14T16:09:45.530Z,12.77
2018-12-14T16:12:14.499Z,13.20
2018-12-14T16:14:46.216Z,13.67
2018-12-14T16:17:15.185Z,14.87
2018-12-14T16:19:44.436Z,12.67
2018-12-14T16:22:13.496Z,11.43
2018-12-14T16:24:42.531Z,12.07
2018-12-14T16:27:11.534Z,11.70
2018-12-14T16:29:40.437Z,11.50
2018-12-14T16:32:09.335Z,12.10
2018-12-14T16:34:38.265Z,11.37
2018-12-14T16:37:07.256Z,10.67
2018-12-14T16:39:36.375Z,11.97
2018-12-14T16:42:05.411Z,11.33
2018-12-14T16:44:34.343Z,11.23
2018-12-14T16:47:03.341Z,11.33
2018-12-14T16:49:32.265Z,10.83
2018-12-14T16:52:01.376Z,14.57
2018-12-14T16:54:30.283Z,11.47
2018-12-14T16:56:59.193Z,11.60
2018-12-14T16:59:28.225Z,11.53
2018-12-14T17:01:57.152Z,11.70
2018-12-14T17:04:26.164Z,11.70
2018-12-14T17:06:55.162Z,11.80
2018-12-14T17:09:24.144Z,12.20
2018-12-14T17:11:52.994Z,11.93
2018-12-14T17:14:22.161Z,11.30
2018-12-14T17:16:51.144Z,11.77
2018-12-14T17:19:20.030Z,11.23
2018-12-14T17:21:49.054Z,11.23
2018-12-14T17:24:18.065Z,12.27
2018-12-14T17:26:47.151Z,11.20
2018-12-14T17:29:16.539Z,11.27
2018-12-14T17:31:45.465Z,12.73
2018-12-14T17:34:14.413Z,10.80
2018-12-14T17:36:43.444Z,12.37
2018-12-14T17:39:12.544Z,13.97
2018-12-14T17:41:41.514Z,12.73
2018-12-14T17:44:10.644Z,13.80
2018-12-14T17:46:39.928Z,14.60
2018-12-14T17:49:08.778Z,12.00
2018-12-14T17:51:38.003Z,11.60
2018-12-14T17:54:06.912Z,12.77
2018-12-14T17:56:35.820Z,12.80
2018-12-14T17:59:05.308Z,12.67
2018-12-14T18:01:34.396Z,11.60
2018-12-14T18:04:05.476Z,13.27
2018-12-14T18:06:35.860Z,10.80
2018-12-14T18:09:05.810Z,12.37
2018-12-14T18:11:35.406Z,12.10
2018-12-14T18:14:04.415Z,12.83
2018-12-14T18:16:33.354Z,13.43
2018-12-14T18:19:02.541Z,11.97
2018-12-14T18:21:31.500Z,11.70
2018-12-14T18:24:00.708Z,12.00
2018-12-14T18:26:29.998Z,11.97
2018-12-14T18:28:58.877Z,12.07
2018-12-14T18:31:28.523Z,10.57
2018-12-14T18:33:57.463Z,11.07
2018-12-14T18:36:26.357Z,12.40
2018-12-14T18:38:55.486Z,12.37
2018-12-14T18:41:24.668Z,14.00
2018-12-14T18:43:53.653Z,12.23
2018-12-14T18:46:23.899Z,13.10
2018-12-14T18:48:52.911Z,13.50
2018-12-14T18:51:21.903Z,14.50
2018-12-14T18:53:56.351Z,12.60
2018-12-14T18:56:26.439Z,14.20
2018-12-14T18:58:56.326Z,12.33
2018-12-14T19:01:25.203Z,13.13
2018-12-14T19:03:57.365Z,13.50
2018-12-14T19:06:26.687Z,12.70
2018-12-14T19:08:55.565Z,13.77
2018-12-14T19:11:24.612Z,12.70
2018-12-14T19:13:53.511Z,13.57
2018-12-14T19:16:22.357Z,12.83
2018-12-14T19:18:51.370Z,13.87
2018-12-14T19:21:20.383Z,13.27
2018-12-14T19:23:49.295Z,14.23
2018-12-14T19:26:18.243Z,15.10
2018-12-14T19:28:47.415Z,16.20
2018-12-14T19:31:16.381Z,16.43
2018-12-14T19:33:45.288Z,16.60
2018-12-14T19:36:14.429Z,13.43
2018-12-14T19:38:43.457Z,16.67
2018-12-14T19:41:12.318Z,15.53
2018-12-14T19:43:41.547Z,15.07
2018-12-14T19:46:10.570Z,15.70
2018-12-14T19:48:39.460Z,15.63
2018-12-14T19:51:08.341Z,14.73
2018-12-14T19:53:37.435Z,17.03
2018-12-14T19:56:06.368Z,16.13
2018-12-14T19:58:35.251Z,14.70
2018-12-14T20:01:04.409Z,16.00
2018-12-14T20:03:33.395Z,16.43
2018-12-14T20:06:03.450Z,16.67
2018-12-14T20:08:32.416Z,15.73
2018-12-14T20:11:01.310Z,15.93
2018-12-14T20:13:30.421Z,16.97
2018-12-14T20:16:00.135Z,17.03
2018-12-14T20:18:29.332Z,17.00
2018-12-14T20:20:58.475Z,17.40
2018-12-14T20:23:27.963Z,17.33
2018-12-14T20:25:57.478Z,16.47
2018-12-14T20:28:26.739Z,19.10
2018-12-14T20:30:55.798Z,19.23
2018-12-14T20:33:25.362Z,17.93
2018-12-14T20:35:54.414Z,16.23
2018-12-14T20:38:23.456Z,16.63
2018-12-14T20:40:53.933Z,17.33
2018-12-14T20:43:24.314Z,22.23
2018-12-14T20:45:54.038Z,17.87
2018-12-14T20:48:28.167Z,18.23
2018-12-14T20:50:57.183Z,17.63
2018-12-14T20:53:26.785Z,15.57
2018-12-14T20:55:56.587Z,18.07
2018-12-14T20:58:25.918Z,18.50
2018-12-14T21:00:54.891Z,18.47
2018-12-14T21:03:23.796Z,18.50
2018-12-14T21:05:53.307Z,19.67
2018-12-14T21:08:22.320Z,18.87
2018-12-14T21:10:51.258Z,19.23
2018-12-14T21:13:20.766Z,17.33
2018-12-14T21:15:49.741Z,17.80
2018-12-14T21:18:18.923Z,16.33
2018-12-14T21:20:47.951Z,16.27
2018-12-14T21:23:17.310Z,16.00
2018-12-14T21:25:47.285Z,16.40
2018-12-14T21:28:16.354Z,17.10
2018-12-14T21:30:45.452Z,18.77
2018-12-14T21:33:15.522Z,19.03
2018-12-14T21:35:44.755Z,17.83
2018-12-14T21:38:13.728Z,17.87
2018-12-14T21:40:42.837Z,18.43
2018-12-14T21:43:12.109Z,17.97
2018-12-14T21:45:41.099Z,18.93
2018-12-14T21:48:10.731Z,17.83
2018-12-14T21:50:40.200Z,18.33
2018-12-14T21:53:14.401Z,17.97
2018-12-14T21:55:40.266Z,17.37
2018-12-14T21:58:10.354Z,19.53
2018-12-14T22:00:39.380Z,18.67
2018-12-14T22:03:08.824Z,17.57
2018-12-14T22:05:37.862Z,19.73
2018-12-14T22:08:07.203Z,22.77
2018-12-14T22:10:36.133Z,23.73
2018-12-14T22:13:05.055Z,20.60
2018-12-14T22:15:33.951Z,20.57
2018-12-14T22:18:03.017Z,20.80
2018-12-14T22:20:32.672Z,20.70
2018-12-14T22:23:02.210Z,19.20
2018-12-14T22:25:31.466Z,19.20
2018-12-14T22:28:00.995Z,19.33
2018-12-14T22:30:30.729Z,18.50
2018-12-14T22:32:59.870Z,18.40
2018-12-14T22:35:30.045Z,20.07
2018-12-14T22:37:59.193Z,20.40
2018-12-14T22:40:28.956Z,19.93
2018-12-14T22:42:58.577Z,20.00
2018-12-14T22:45:28.651Z,19.73
2018-12-14T22:47:57.850Z,20.00
2018-12-14T22:50:28.282Z,19.97
2018-12-14T22:52:57.531Z,19.77
2018-12-14T22:55:28.559Z,19.53
2018-12-14T22:57:58.074Z,19.00
2018-12-14T23:00:27.846Z,19.83
2018-12-14T23:02:57.048Z,19.47
2018-12-14T23:05:27.559Z,19.40
2018-12-14T23:07:56.731Z,19.80
2018-12-14T23:10:25.821Z,19.60
2018-12-14T23:12:54.942Z,18.60
2018-12-14T23:15:24.211Z,19.07
2018-12-14T23:17:53.570Z,20.17
2018-12-14T23:20:23.035Z,20.57
2018-12-14T23:22:52.169Z,18.97
2018-12-14T23:25:21.341Z,19.10
2018-12-14T23:27:50.249Z,20.70
2018-12-14T23:30:19.233Z,19.33
2018-12-14T23:32:48.090Z,18.40
2018-12-14T23:35:17.005Z,20.07
2018-12-14T23:37:46.174Z,20.00
2018-12-14T23:40:15.114Z,19.87
2018-12-14T23:42:44.450Z,20.03
2018-12-14T23:45:13.453Z,20.10
2018-12-14T23:47:42.471Z,19.63
2018-12-14T23:50:11.996Z,20.40
2018-12-14T23:52:40.930Z,20.93
2018-12-14T23:55:10.325Z,20.60
2018-12-14T23:57:39.824Z,21.33
